createdAt,value
2018-12-14T00:02:01.421Z,19.95
2018-12-14T00:04:29.908Z,22.48
2018-12-14T00:06:58.265Z,21.00
2018-12-14T00:09:26.632Z,20.37
2018-12-14T00:11:54.995Z,21.07
2018-12-14T00:14:23.392Z,24.12
2018-12-14T00:16:51.777Z,22.25
2018-12-14T00:19:20.145Z,19.40
2018-12-14T00:21:48.503Z,20.37
2018-12-14T00:24:17.471Z,18.82
2018-12-14T00:26:45.847Z,21.95
2018-12-14T00:29:14.221Z,20.23
2018-12-14T00:31:42.614Z,18.70
2018-12-14T00:34:10.998Z,20.00
2018-12-14T00:36:39.586Z,20.15
2018-12-14T00:39:09.227Z,17.48
2018-12-14T00:41:37.587Z,21.75
2018-12-14T00:44:05.970Z,18.07
2018-12-14T00:46:36.371Z,21.35
2018-12-14T00:49:04.838Z,18.62
2018-12-14T00:51:33.199Z,19.67
2018-12-14T00:54:01.573Z,19.20
2018-12-14T00:56:29.941Z,21.87
2018-12-14T00:58:58.306Z,20.27
2018-12-14T01:01:26.668Z,21.17
2018-12-14T01:03:55.030Z,19.50
2018-12-14T01:06:23.619Z,17.62
2018-12-14T01:08:52.259Z,17.35
2018-12-14T01:11:20.615Z,17.48
2018-12-14T01:13:48.975Z,17.45
2018-12-14T01:16:17.681Z,18.30
2018-12-14T01:18:46.031Z,17.32
2018-12-14T01:21:14.711Z,21.95
2018-12-14T01:23:43.083Z,18.45
2018-12-14T01:26:11.439Z,18.90
2018-12-14T01:28:39.790Z,17.67
2018-12-14T01:31:08.166Z,19.62
2018-12-14T01:33:36.532Z,18.17
2018-12-14T01:36:04.902Z,19.82
2018-12-14T01:38:33.287Z,18.48
2018-12-14T01:41:01.841Z,16.75
2018-12-14T01:43:30.472Z,17.92
2018-12-14T01:45:59.191Z,18.30
2018-12-14T01:48:27.821Z,16.48
2018-12-14T01:50:56.176Z,20.08
2018-12-14T01:53:24.602Z,16.37
2018-12-14T01:55:52.954Z,17.77
2018-12-14T01:58:21.325Z,18.20
2018-12-14T02:00:49.819Z,16.50
2018-12-14T02:03:18.388Z,16.35
2018-12-14T02:05:46.730Z,16.97
2018-12-14T02:08:15.103Z,16.20
2018-12-14T02:10:43.586Z,16.90
2018-12-14T02:13:11.938Z,18.48
2018-12-14T02:15:40.354Z,17.00
2018-12-14T02:18:08.713Z,18.25
2018-12-14T02:20:37.120Z,18.98
2018-12-14T02:23:05.566Z,16.82
2018-12-14T02:25:34.176Z,16.42
2018-12-14T02:28:02.537Z,17.50
2018-12-14T02:30:41.692Z,18.07
2018-12-14T02:33:10.060Z,18.50
2018-12-14T02:35:38.431Z,17.00
2018-12-14T02:38:06.919Z,16.67
2018-12-14T02:40:35.284Z,19.17
2018-12-14T02:43:03.896Z,18.17
2018-12-14T02:45:32.406Z,17.10
2018-12-14T02:48:00.755Z,18.42
2018-12-14T02:50:29.112Z,16.77
2018-12-14T02:52:57.497Z,14.93
2018-12-14T02:55:25.858Z,16.87
2018-12-14T02:57:54.232Z,17.70
2018-12-14T03:00:22.664Z,17.60
2018-12-14T03:02:51.172Z,17.32
2018-12-14T03:05:19.620Z,18.62
2018-12-14T03:07:48.024Z,16.12
2018-12-14T03:10:16.381Z,16.97
2018-12-14T03:12:44.776Z,16.87
2018-12-14T03:15:13.747Z,17.45
2018-12-14T03:17:42.085Z,18.40
2018-12-14T03:20:10.637Z,17.80
2018-12-14T03:22:39.056Z,18.02
2018-12-14T03:25:07.640Z,19.27
2018-12-14T03:27:36.002Z,17.77
2018-12-14T03:30:05.743Z,19.82
2018-12-14T03:32:34.102Z,18.27
2018-12-14T03:35:02.455Z,20.02
2018-12-14T03:37:30.963Z,18.20
2018-12-14T03:39:59.356Z,20.80
2018-12-14T03:42:33.928Z,18.12
2018-12-14T03:44:58.103Z,18.70
2018-12-14T03:47:26.446Z,17.23
2018-12-14T03:49:54.795Z,17.80
2018-12-14T03:52:23.168Z,19.07
2018-12-14T03:54:51.521Z,19.15
2018-12-14T03:57:19.952Z,21.85
2018-12-14T03:59:48.727Z,20.92
2018-12-14T04:02:17.082Z,20.97
2018-12-14T04:04:45.438Z,19.10
2018-12-14T04:07:13.804Z,21.27
2018-12-14T04:09:42.147Z,19.95
2018-12-14T04:12:10.506Z,20.12
2018-12-14T04:14:39.193Z,19.90
2018-12-14T04:17:07.536Z,19.52
2018-12-14T04:19:35.891Z,17.90
2018-12-14T04:22:04.266Z,20.55
2018-12-14T04:24:32.611Z,21.73
2018-12-14T04:27:01.076Z,21.05
2018-12-14T04:29:29.446Z,21.07
2018-12-14T04:31:57.817Z,19.92
2018-12-14T04:34:26.181Z,21.30
2018-12-14T04:36:54.569Z,20.95
2018-12-14T04:39:22.913Z,22.32
2018-12-14T04:41:51.277Z,22.73
2018-12-14T04:44:19.656Z,22.82
2018-12-14T04:46:48.015Z,23.92
2018-12-14T04:49:16.493Z,20.02
2018-12-14T04:51:44.852Z,22.67
2018-12-14T04:54:13.215Z,24.92
2018-12-14T04:56:41.580Z,22.90
2018-12-14T04:59:09.956Z,22.10
2018-12-14T05:01:38.327Z,22.40
2018-12-14T05:04:06.682Z,20.45
2018-12-14T05:06:35.070Z,21.82
2018-12-14T05:09:04.558Z,20.60
2018-12-14T05:11:32.919Z,22.60
2018-12-14T05:14:01.321Z,23.40
2018-12-14T05:16:31.951Z,24.55
2018-12-14T05:19:00.308Z,22.37
2018-12-14T05:21:28.682Z,22.32
2018-12-14T05:23:57.036Z,21.80
2018-12-14T05:26:25.570Z,22.15
2018-12-14T05:28:53.948Z,24.32
2018-12-14T05:31:22.300Z,21.77
2018-12-14T05:33:51.075Z,20.88
2018-12-14T05:36:19.691Z,24.05
2018-12-14T05:38:48.698Z,25.55
2018-12-14T05:41:17.088Z,23.27
2018-12-14T05:43:45.492Z,22.85
2018-12-14T05:46:13.835Z,24.95
2018-12-14T05:48:42.189Z,26.12
2018-12-14T05:51:10.569Z,25.90
2018-12-14T05:53:38.935Z,25.12
2018-12-14T05:56:07.287Z,25.30
2018-12-14T05:58:35.662Z,27.15
2018-12-14T06:01:04.020Z,24.98
2018-12-14T06:03:32.383Z,26.97
2018-12-14T06:06:01.012Z,26.17
2018-12-14T06:08:29.378Z,25.32
2018-12-14T06:10:57.756Z,23.90
2018-12-14T06:13:26.149Z,26.65
2018-12-14T06:15:54.617Z,27.15
2018-12-14T06:18:22.975Z,26.68
2018-12-14T06:20:51.452Z,27.58
2018-12-14T06:23:19.922Z,27.42
2018-12-14T06:25:48.411Z,27.58
2018-12-14T06:28:17.117Z,25.37
2018-12-14T06:30:45.486Z,25.72
2018-12-14T06:33:13.971Z,26.95
2018-12-14T06:35:42.346Z,30.12
2018-12-14T06:38:10.934Z,24.43
2018-12-14T06:40:39.391Z,27.37
2018-12-14T06:43:07.762Z,27.15
2018-12-14T06:45:36.256Z,28.30
2018-12-14T06:48:04.630Z,28.20
2018-12-14T06:50:33.521Z,25.08
2018-12-14T06:53:02.269Z,26.48
2018-12-14T06:55:30.886Z,27.60
2018-12-14T06:57:59.288Z,27.32
2018-12-14T07:00:27.631Z,28.32
2018-12-14T07:02:56.013Z,27.67
2018-12-14T07:05:24.413Z,28.35
2018-12-14T07:07:52.784Z,28.90
2018-12-14T07:10:21.473Z,28.23
2018-12-14T07:12:49.875Z,29.23
2018-12-14T07:15:18.271Z,28.62
2018-12-14T07:17:46.745Z,26.48
2018-12-14T07:20:15.133Z,26.73
2018-12-14T07:22:43.491Z,27.25
2018-12-14T07:25:11.858Z,28.17
2018-12-14T07:27:40.482Z,37.08
2018-12-14T07:30:09.015Z,27.50
2018-12-14T07:32:38.173Z,36.00
2018-12-14T07:35:07.393Z,29.00
2018-12-14T07:37:35.761Z,37.25
2018-12-14T07:40:05.275Z,34.95
2018-12-14T07:42:33.865Z,32.28
2018-12-14T07:45:02.233Z,29.10
2018-12-14T07:47:30.591Z,37.45
2018-12-14T07:49:58.985Z,44.10
2018-12-14T07:52:27.580Z,30.23
2018-12-14T07:54:56.035Z,25.35
2018-12-14T07:57:24.425Z,25.75
2018-12-14T07:59:52.770Z,23.52
2018-12-14T08:02:21.133Z,37.98
2018-12-14T08:04:50.053Z,29.98
2018-12-14T08:07:18.565Z,26.20
2018-12-14T08:09:46.934Z,25.37
2018-12-14T08:12:15.618Z,23.35
2018-12-14T08:14:44.316Z,23.77
2018-12-14T08:17:12.691Z,30.23
2018-12-14T08:19:41.089Z,33.30
2018-12-14T08:22:09.473Z,24.27
2018-12-14T08:24:37.837Z,23.45
2018-12-14T08:27:06.547Z,23.07
2018-12-14T08:29:34.911Z,22.15
2018-12-14T08:32:03.305Z,22.45
2018-12-14T08:34:32.016Z,22.22
2018-12-14T08:37:00.398Z,26.27
2018-12-14T08:39:28.758Z,20.85
2018-12-14T08:41:57.353Z,19.27
2018-12-14T08:44:25.710Z,22.70
2018-12-14T08:46:54.073Z,21.20
2018-12-14T08:49:22.528Z,19.90
2018-12-14T08:51:50.890Z,23.67
2018-12-14T08:54:19.271Z,19.62
2018-12-14T08:56:47.674Z,20.12
2018-12-14T08:59:16.041Z,20.62
2018-12-14T09:01:44.394Z,20.32
2018-12-14T09:04:14.896Z,21.00
2018-12-14T09:06:43.635Z,20.12
2018-12-14T09:09:11.992Z,18.98
2018-12-14T09:11:40.494Z,19.20
2018-12-14T09:14:08.858Z,18.32
2018-12-14T09:16:37.214Z,18.55
2018-12-14T09:19:05.576Z,17.37
2018-12-14T09:21:34.056Z,18.40
2018-12-14T09:24:02.410Z,17.77
2018-12-14T09:26:30.979Z,18.32
2018-12-14T09:28:59.785Z,18.85
2018-12-14T09:31:28.469Z,17.82
2018-12-14T09:33:57.003Z,18.75
2018-12-14T09:36:25.843Z,18.27
2018-12-14T09:38:54.797Z,21.23
2018-12-14T09:41:23.373Z,17.55
2018-12-14T09:43:54.541Z,21.23
2018-12-14T09:46:22.112Z,17.42
2018-12-14T09:48:50.503Z,16.50
2018-12-14T09:51:18.988Z,17.65
2018-12-14T09:53:47.452Z,16.12
2018-12-14T09:56:15.845Z,17.55
2018-12-14T09:58:44.208Z,16.93
2018-12-14T10:01:12.590Z,17.27
2018-12-14T10:03:41.417Z,16.48
2018-12-14T10:06:15.536Z,21.12
2018-12-14T10:08:40.139Z,17.75
2018-12-14T10:11:09.331Z,19.95
2018-12-14T10:13:37.880Z,20.72
2018-12-14T10:16:06.664Z,17.40
2018-12-14T10:18:35.217Z,18.42
2018-12-14T10:21:03.698Z,20.95
2018-12-14T10:23:32.616Z,19.25
2018-12-14T10:26:01.007Z,22.98
2018-12-14T10:28:29.368Z,22.48
2018-12-14T10:30:57.733Z,16.75
2018-12-14T10:33:26.135Z,18.02
2018-12-14T10:35:55.126Z,16.60
2018-12-14T10:38:23.475Z,17.17
2018-12-14T10:40:51.854Z,16.32
2018-12-14T10:43:21.506Z,15.58
2018-12-14T10:45:50.269Z,16.65
2018-12-14T10:48:19.195Z,17.37
2018-12-14T10:50:47.814Z,16.12
2018-12-14T10:53:16.183Z,17.27
2018-12-14T10:55:44.551Z,15.15
2018-12-14T10:58:12.909Z,16.35
2018-12-14T11:00:46.583Z,16.40
2018-12-14T11:03:14.946Z,15.20
2018-12-14T11:05:43.308Z,15.75
2018-12-14T11:08:11.766Z,17.30
2018-12-14T11:10:40.127Z,14.78
2018-12-14T11:13:08.492Z,16.62
2018-12-14T11:15:36.978Z,16.55
2018-12-14T11:18:05.329Z,15.00
2018-12-14T11:20:33.965Z,15.03
2018-12-14T11:23:02.332Z,13.93
2018-12-14T11:25:30.681Z,16.87
2018-12-14T11:27:59.054Z,15.93
2018-12-14T11:30:27.466Z,14.35
2018-12-14T11:32:55.834Z,15.98
2018-12-14T11:35:24.330Z,15.70
2018-12-14T11:37:52.756Z,17.45
2018-12-14T11:40:21.332Z,16.20
2018-12-14T11:42:49.694Z,15.13
2018-12-14T11:45:18.099Z,16.93
2018-12-14T11:47:46.463Z,17.65
2018-12-14T11:50:14.833Z,14.78
2018-12-14T11:52:43.202Z,15.90
2018-12-14T11:55:11.683Z,15.88
2018-12-14T11:57:40.055Z,18.60
2018-12-14T12:00:12.117Z,15.80
2018-12-14T12:02:43.178Z,18.73
2018-12-14T12:05:11.120Z,16.90
2018-12-14T12:07:40.897Z,15.38
2018-12-14T12:10:10.534Z,16.85
2018-12-14T12:12:39.565Z,16.35
2018-12-14T12:15:09.558Z,16.62
2018-12-14T12:17:39.343Z,16.15
2018-12-14T12:20:08.679Z,19.07
2018-12-14T12:22:37.026Z,17.50
2018-12-14T12:28:04.285Z,16.45
2018-12-14T12:30:33.224Z,16.95
2018-12-14T12:33:01.868Z,17.40
2018-12-14T12:35:30.239Z,20.37
2018-12-14T12:37:58.943Z,19.37
2018-12-14T12:40:27.301Z,17.00
2018-12-14T12:42:55.988Z,20.90
2018-12-14T12:45:24.371Z,21.60
2018-12-14T12:47:52.728Z,19.95
2018-12-14T12:50:21.136Z,24.00
2018-12-14T12:52:49.519Z,21.50
2018-12-14T12:55:17.882Z,22.42
2018-12-14T12:57:46.262Z,20.08
2018-12-14T13:00:14.629Z,22.50
2018-12-14T13:02:43.571Z,22.20
2018-12-14T13:05:12.082Z,32.80
2018-12-14T13:07:40.476Z,23.45
2018-12-14T13:10:09.210Z,36.73
2018-12-14T13:12:37.837Z,25.20
2018-12-14T13:15:06.947Z,22.22
2018-12-14T13:17:35.450Z,23.50
2018-12-14T13:20:04.202Z,21.45
2018-12-14T13:22:32.603Z,21.55
2018-12-14T13:25:01.491Z,26.82
2018-12-14T13:27:30.222Z,25.80
2018-12-14T13:29:58.617Z,22.27
2018-12-14T13:32:27.264Z,21.15
2018-12-14T13:34:55.628Z,22.65
2018-12-14T13:37:23.998Z,22.42
2018-12-14T13:39:52.371Z,22.55
2018-12-14T13:42:20.754Z,21.33
2018-12-14T13:44:49.162Z,21.82
2018-12-14T13:47:17.536Z,21.62
2018-12-14T13:49:45.895Z,20.80
2018-12-14T13:52:14.264Z,20.95
2018-12-14T13:54:42.658Z,21.90
2018-12-14T13:57:11.057Z,20.52
2018-12-14T13:59:39.442Z,23.27
2018-12-14T14:02:08.097Z,21.37
2018-12-14T14:04:36.574Z,24.18
2018-12-14T14:07:05.479Z,21.75
2018-12-14T14:09:33.959Z,24.12
2018-12-14T14:12:02.543Z,23.55
2018-12-14T14:14:30.901Z,23.22
2018-12-14T14:16:59.679Z,21.95
2018-12-14T14:19:28.398Z,22.98
2018-12-14T14:21:56.754Z,22.02
2018-12-14T14:24:25.272Z,21.48
2018-12-14T14:26:53.806Z,22.80
2018-12-14T14:29:22.173Z,21.80
2018-12-14T14:31:50.722Z,22.17
2018-12-14T14:34:19.268Z,23.05
2018-12-14T14:36:47.645Z,22.40
2018-12-14T14:39:16.311Z,23.90
2018-12-14T14:41:45.329Z,26.23
2018-12-14T14:44:13.687Z,24.10
2018-12-14T14:46:42.047Z,23.02
2018-12-14T14:49:10.434Z,24.20
2018-12-14T14:51:38.999Z,21.20
2018-12-14T14:54:07.364Z,24.00
2018-12-14T14:56:35.758Z,26.02
2018-12-14T14:59:04.131Z,24.37
2018-12-14T15:01:32.667Z,25.95
2018-12-14T15:04:01.353Z,24.20
2018-12-14T15:06:29.826Z,27.35
2018-12-14T15:08:58.694Z,29.25
2018-12-14T15:11:27.413Z,26.77
2018-12-14T15:13:56.101Z,28.95
2018-12-14T15:16:24.643Z,32.23
2018-12-14T15:18:53.176Z,31.75
2018-12-14T15:21:21.551Z,28.95
2018-12-14T15:23:50.207Z,31.00
2018-12-14T15:26:18.769Z,29.23
2018-12-14T15:28:47.148Z,28.83
2018-12-14T15:31:15.619Z,30.25
2018-12-14T15:33:44.340Z,26.90
2018-12-14T15:36:13.007Z,28.95
2018-12-14T15:38:41.677Z,30.10
2018-12-14T15:41:10.373Z,25.72
2018-12-14T15:43:38.863Z,28.15
2018-12-14T15:46:07.260Z,27.77
2018-12-14T15:48:35.687Z,26.70
2018-12-14T15:51:04.511Z,27.67
2018-12-14T15:53:32.868Z,28.98
2018-12-14T15:56:01.258Z,25.32
2018-12-14T15:58:29.625Z,27.42
2018-12-14T16:00:57.998Z,28.92
2018-12-14T16:03:26.408Z,27.95
2018-12-14T16:05:54.837Z,26.48
2018-12-14T16:08:23.249Z,29.12
2018-12-14T16:10:51.644Z,26.35
2018-12-14T16:13:20.264Z,24.87
2018-12-14T16:15:48.840Z,24.43
2018-12-14T16:18:17.317Z,24.82
2018-12-14T16:20:45.801Z,22.98
2018-12-14T16:23:14.167Z,27.30
2018-12-14T16:25:42.577Z,25.90
2018-12-14T16:28:11.078Z,25.80
2018-12-14T16:30:39.495Z,28.10
2018-12-14T16:33:07.885Z,36.40
2018-12-14T16:35:36.252Z,24.52
2018-12-14T16:38:05.079Z,26.17
2018-12-14T16:40:33.643Z,28.40
2018-12-14T16:43:02.026Z,32.78
2018-12-14T16:45:30.404Z,28.92
2018-12-14T16:47:58.803Z,24.47
2018-12-14T16:50:27.164Z,25.40
2018-12-14T16:52:55.536Z,37.25
2018-12-14T16:55:23.918Z,28.40
2018-12-14T16:57:52.294Z,24.70
2018-12-14T17:00:20.760Z,23.27
2018-12-14T17:02:49.153Z,23.10
2018-12-14T17:05:17.569Z,23.85
2018-12-14T17:07:45.928Z,24.77
2018-12-14T17:10:14.541Z,27.25
2018-12-14T17:12:43.044Z,24.57
2018-12-14T17:15:11.430Z,23.42
2018-12-14T17:17:39.888Z,24.65
2018-12-14T17:20:08.682Z,25.08
2018-12-14T17:22:37.366Z,24.32
2018-12-14T17:25:06.852Z,24.45
2018-12-14T17:27:35.278Z,25.52
2018-12-14T17:30:04.626Z,26.27
2018-12-14T17:32:33.051Z,25.08
2018-12-14T17:35:01.422Z,27.67
2018-12-14T17:37:29.772Z,27.75
2018-12-14T17:39:58.204Z,24.32
2018-12-14T17:42:26.743Z,26.45
2018-12-14T17:44:55.131Z,23.52
2018-12-14T17:47:23.591Z,23.05
2018-12-14T17:49:51.994Z,24.02
2018-12-14T17:52:20.694Z,25.12
2018-12-14T17:54:49.391Z,27.25
2018-12-14T17:57:17.760Z,24.63
2018-12-14T17:59:46.316Z,22.70
2018-12-14T18:02:14.710Z,24.65
2018-12-14T18:04:43.479Z,23.25
2018-12-14T18:07:11.857Z,23.80
2018-12-14T18:09:40.265Z,24.47
2018-12-14T18:12:09.534Z,22.20
2018-12-14T18:14:37.890Z,23.52
2018-12-14T18:17:06.405Z,23.10
2018-12-14T18:19:34.768Z,25.45
2018-12-14T18:22:03.364Z,29.75
2018-12-14T18:24:31.746Z,25.15
2018-12-14T18:27:00.098Z,24.20
2018-12-14T18:29:28.467Z,23.95
2018-12-14T18:31:56.858Z,23.52
2018-12-14T18:34:25.279Z,21.30
2018-12-14T18:36:53.846Z,24.12
2018-12-14T18:39:22.247Z,22.95
2018-12-14T18:41:50.620Z,20.60
2018-12-14T18:44:19.012Z,23.85
2018-12-14T18:46:47.515Z,22.48
2018-12-14T18:49:15.869Z,24.05
2018-12-14T18:51:44.252Z,24.52
2018-12-14T18:54:12.655Z,26.75
2018-12-14T18:56:41.613Z,27.30
2018-12-14T18:59:10.322Z,23.65
2018-12-14T19:01:39.039Z,24.70
2018-12-14T19:04:07.405Z,24.25
2018-12-14T19:06:35.801Z,24.45
2018-12-14T19:09:05.406Z,22.85
2018-12-14T19:11:33.785Z,24.18
2018-12-14T19:14:02.156Z,25.02
2018-12-14T19:16:30.825Z,26.52
2018-12-14T19:18:59.164Z,21.77
2018-12-14T19:21:27.545Z,23.15
2018-12-14T19:23:55.981Z,22.87
2018-12-14T19:26:24.337Z,21.20
2018-12-14T19:28:52.700Z,24.40
2018-12-14T19:31:21.074Z,24.40
2018-12-14T19:33:49.445Z,23.52
2018-12-14T19:36:18.140Z,25.90
2018-12-14T19:38:46.780Z,25.10
2018-12-14T19:41:15.166Z,24.40
2018-12-14T19:43:43.677Z,24.15
2018-12-14T19:46:12.318Z,23.27
2018-12-14T19:48:41.003Z,25.12
2018-12-14T19:51:09.430Z,26.23
2018-12-14T19:53:37.833Z,23.60
2018-12-14T19:56:06.214Z,25.72
2018-12-14T19:58:34.568Z,25.02
2018-12-14T20:01:02.992Z,24.87
2018-12-14T20:03:31.344Z,24.50
2018-12-14T20:05:59.901Z,24.55
2018-12-14T20:08:28.333Z,25.17
2018-12-14T20:10:56.990Z,24.18
2018-12-14T20:13:25.395Z,23.75
2018-12-14T20:15:57.603Z,25.40
2018-12-14T20:18:24.155Z,25.23
2018-12-14T20:20:52.659Z,27.07
2018-12-14T20:23:21.135Z,23.65
2018-12-14T20:25:49.511Z,22.20
2018-12-14T20:28:17.870Z,23.47
2018-12-14T20:30:46.282Z,23.07
2018-12-14T20:33:14.655Z,22.70
2018-12-14T20:35:43.007Z,23.27
2018-12-14T20:38:11.512Z,20.82
2018-12-14T20:40:39.961Z,22.67
2018-12-14T20:43:08.342Z,23.00
2018-12-14T20:45:36.734Z,21.70
2018-12-14T20:48:05.185Z,21.97
2018-12-14T20:50:33.864Z,24.95
2018-12-14T20:53:02.295Z,24.20
2018-12-14T20:55:30.854Z,24.50
2018-12-14T20:57:59.227Z,25.23
2018-12-14T21:00:27.867Z,23.20
2018-12-14T21:02:56.245Z,24.10
2018-12-14T21:05:24.734Z,23.10
2018-12-14T21:07:53.165Z,24.95
2018-12-14T21:10:21.817Z,23.50
2018-12-14T21:12:50.491Z,25.05
2018-12-14T21:15:19.149Z,23.85
2018-12-14T21:17:47.512Z,23.50
2018-12-14T21:20:15.873Z,24.72
2018-12-14T21:22:44.244Z,21.73
2018-12-14T21:25:12.597Z,20.57
2018-12-14T21:27:41.065Z,25.45
2018-12-14T21:30:10.136Z,22.30
2018-12-14T21:32:38.508Z,21.35
2018-12-14T21:35:07.018Z,21.42
2018-12-14T21:37:35.431Z,23.45
2018-12-14T21:40:04.618Z,22.50
2018-12-14T21:42:34.282Z,24.20
2018-12-14T21:45:02.911Z,24.15
2018-12-14T21:47:31.287Z,24.00
2018-12-14T21:49:59.859Z,22.02
2018-12-14T21:52:28.244Z,22.30
2018-12-14T21:54:56.655Z,21.62
2018-12-14T21:57:25.020Z,22.52
2018-12-14T21:59:53.724Z,21.68
2018-12-14T22:02:22.116Z,22.85
2018-12-14T22:04:50.482Z,20.15
2018-12-14T22:07:18.865Z,19.37
2018-12-14T22:09:48.333Z,22.15
2018-12-14T22:12:16.899Z,19.15
2018-12-14T22:14:45.287Z,19.17
2018-12-14T22:17:13.636Z,22.13
2018-12-14T22:19:41.979Z,20.10
2018-12-14T22:22:10.386Z,19.42
2018-12-14T22:24:39.039Z,20.50
2018-12-14T22:27:07.713Z,21.40
2018-12-14T22:29:36.502Z,19.35
2018-12-14T22:32:05.021Z,18.52
2018-12-14T22:34:33.508Z,19.92
2018-12-14T22:37:01.877Z,19.42
2018-12-14T22:39:30.556Z,19.42
2018-12-14T22:41:58.909Z,21.48
2018-12-14T22:44:27.328Z,19.57
2018-12-14T22:46:55.994Z,18.05
2018-12-14T22:49:24.387Z,17.95
2018-12-14T22:51:52.766Z,20.27
2018-12-14T22:54:21.132Z,17.65
2018-12-14T22:56:49.496Z,17.20
2018-12-14T22:59:17.889Z,18.00
2018-12-14T23:01:46.251Z,17.87
2018-12-14T23:04:14.944Z,18.42
2018-12-14T23:06:43.672Z,16.40
2018-12-14T23:09:12.037Z,15.75
2018-12-14T23:11:40.620Z,17.62
2018-12-14T23:14:09.026Z,16.57
2018-12-14T23:16:37.405Z,18.65
2018-12-14T23:19:05.785Z,14.45
2018-12-14T23:21:34.170Z,17.40
2018-12-14T23:24:02.620Z,17.30
2018-12-14T23:26:30.985Z,18.70
2018-12-14T23:28:59.366Z,15.05
2018-12-14T23:31:27.736Z,16.80
2018-12-14T23:33:56.082Z,17.37
2018-12-14T23:36:24.461Z,18.95
2018-12-14T23:38:52.826Z,18.07
2018-12-14T23:41:21.195Z,20.75
2018-12-14T23:43:50.023Z,18.30
2018-12-14T23:46:18.498Z,18.17
2018-12-14T23:48:46.878Z,17.98
2018-12-14T23:51:15.321Z,18.70
2018-12-14T23:53:43.686Z,20.20
2018-12-14T23:56:12.365Z,16.50
2018-12-14T23:58:40.842Z,17.45
